Time;durP1;ratioP1;P1;durP2;ratioP2;P2;SDS_P1;SDS_P2;PMS_P1;PMS_P2;Temp;Humidity;BMP_temperature;BMP_pressure;BME280_temperature;BME280_humidity;BME280_pressure;Samples;Min_cycle;Max_cycle;Signal;HPM_P1;HPM_P2
2022/01/20 00:02:01;;;;;;;53.97;39.17;;;2.90;99.90;;;;;;5048661;28;20542;-69
2022/01/20 00:04:36;;;;;;;42.03;37.90;;;2.80;99.90;;;;;;5055539;28;20501;-68
2022/01/20 00:23:05;;;;;;;52.73;38.40;;;2.70;99.90;;;;;;5050511;28;21435;-68
2022/01/20 00:25:52;;;;;;;50.20;38.37;;;2.50;99.90;;;;;;5056423;28;20456;-69
2022/01/20 00:26:42;;;;;;;64.87;38.37;;;2.40;99.90;;;;;;5049996;28;20552;-70
2022/01/20 00:29:16;;;;;;;53.57;37.57;;;2.40;99.90;;;;;;5054159;28;20550;-71
2022/01/20 00:31:49;;;;;;;55.40;39.33;;;2.40;99.90;;;;;;5052200;28;20459;-70
2022/01/20 00:34:20;;;;;;;61.80;38.13;;;2.30;99.90;;;;;;5052363;28;21211;-68
2022/01/20 00:39:29;;;;;;;50.60;37.93;;;2.20;99.90;;;;;;5051181;28;20468;-69
2022/01/20 00:41:56;;;;;;;48.67;40.63;;;2.20;99.90;;;;;;5056673;28;20455;-68
2022/01/20 00:44:23;;;;;;;51.43;41.63;;;2.10;99.90;;;;;;5057583;28;20564;-69
2022/01/20 00:46:51;;;;;;;45.83;40.80;;;2.10;99.90;;;;;;5056288;28;20550;-70
2022/01/20 00:49:19;;;;;;;67.93;41.93;;;2.10;99.90;;;;;;5060216;28;20870;-70
2022/01/20 00:51:46;;;;;;;59.00;41.80;;;2.00;99.90;;;;;;5044507;28;20853;-70
2022/01/20 00:54:13;;;;;;;64.30;41.60;;;2.10;99.90;;;;;;5062599;28;20495;-69
2022/01/20 00:56:40;;;;;;;44.03;39.27;;;2.20;99.90;;;;;;5055043;28;20469;-70
2022/01/20 00:59:07;;;;;;;51.57;37.23;;;2.20;99.90;;;;;;5062411;28;20463;-70
2022/01/20 01:01:34;;;;;;;58.70;40.83;;;2.30;99.90;;;;;;5055743;28;21009;-68
2022/01/20 01:04:00;;;;;;;51.10;38.63;;;2.30;99.90;;;;;;5055355;28;20969;-69
2022/01/20 01:06:43;;;;;;;60.07;37.90;;;2.30;99.90;;;;;;5056101;28;20824;-70
2022/01/20 01:09:10;;;;;;;57.63;38.80;;;2.30;99.90;;;;;;5060499;28;20539;-70
2022/01/20 01:11:38;;;;;;;64.63;39.50;;;2.40;99.90;;;;;;5059188;28;20586;-69
2022/01/20 01:14:06;;;;;;;58.73;37.53;;;2.40;99.90;;;;;;5062268;28;20553;-69
2022/01/20 01:19:59;;;;;;;48.67;35.43;;;2.40;99.90;;;;;;5054771;28;21007;-69
2022/01/20 01:22:23;;;;;;;49.00;37.63;;;2.50;99.90;;;;;;5054044;28;20467;-70
2022/01/20 01:24:54;;;;;;;46.17;36.07;;;2.50;99.90;;;;;;5060023;28;20615;-69
2022/01/20 01:27:23;;;;;;;63.50;37.40;;;2.60;99.90;;;;;;5048264;28;20491;-70
2022/01/20 01:30:07;;;;;;;42.37;35.40;;;2.60;99.90;;;;;;5054236;28;20485;-69
2022/01/20 01:32:45;;;;;;;45.40;33.93;;;2.60;99.90;;;;;;5049475;28;20470;-68
2022/01/20 01:35:12;;;;;;;49.47;34.53;;;2.70;99.90;;;;;;5053662;28;20469;-68
2022/01/20 01:40:29;;;;;;;38.53;34.30;;;3.00;99.90;;;;;;5062763;28;20457;-69
2022/01/20 01:42:56;;;;;;;56.33;36.27;;;3.10;99.90;;;;;;5056127;28;20471;-70
2022/01/20 01:45:28;;;;;;;58.67;33.73;;;3.20;99.90;;;;;;5061008;28;20542;-69
2022/01/20 01:47:56;;;;;;;42.80;33.10;;;3.20;99.90;;;;;;5057477;28;20463;-70
2022/01/20 01:50:23;;;;;;;43.90;33.80;;;3.30;99.90;;;;;;5044228;28;20518;-70
2022/01/20 01:52:52;;;;;;;53.50;31.67;;;3.40;99.90;;;;;;5054213;28;20503;-70
2022/01/20 01:55:20;;;;;;;38.40;33.40;;;3.40;99.90;;;;;;5059910;28;20482;-68
2022/01/20 01:57:47;;;;;;;42.17;33.30;;;3.40;99.90;;;;;;5056612;28;20504;-68
2022/01/20 02:00:17;;;;;;;38.17;33.80;;;3.40;99.90;;;;;;5059928;28;20471;-70
2022/01/20 02:02:44;;;;;;;43.17;34.70;;;3.40;99.90;;;;;;5049708;28;20483;-69
2022/01/20 02:05:14;;;;;;;48.70;35.37;;;3.40;99.90;;;;;;5049322;28;20459;-69
2022/01/20 02:08:09;;;;;;;55.10;35.07;;;3.40;99.90;;;;;;5053608;28;20467;-69
2022/01/20 02:18:52;;;;;;;46.57;35.20;;;3.00;99.90;;;;;;5056286;28;20892;-70
2022/01/20 02:21:21;;;;;;;42.83;35.57;;;3.10;99.90;;;;;;5057973;28;20502;-70
2022/01/20 02:23:49;;;;;;;54.67;35.30;;;3.10;99.90;;;;;;5052240;28;20545;-70
2022/01/20 02:26:16;;;;;;;44.87;34.80;;;3.10;99.90;;;;;;5051469;28;20464;-71
2022/01/20 02:28:44;;;;;;;43.73;35.07;;;3.20;99.90;;;;;;5053946;28;20463;-70
2022/01/20 02:31:12;;;;;;;50.87;36.30;;;3.20;99.90;;;;;;5050941;28;20452;-70
2022/01/20 02:33:38;;;;;;;42.57;36.80;;;3.20;99.90;;;;;;5053385;28;20522;-70
2022/01/20 02:36:11;;;;;;;52.70;39.50;;;3.10;99.90;;;;;;5052282;28;20853;-69
2022/01/20 02:38:43;;;;;;;39.13;35.47;;;3.00;99.90;;;;;;5059713;28;20748;-70
2022/01/20 02:46:41;;;;;;;42.57;36.80;;;2.90;99.90;;;;;;5048284;28;21286;-70
2022/01/20 02:49:08;;;;;;;40.03;34.90;;;2.90;99.90;;;;;;5054081;28;20471;-70
2022/01/20 02:51:35;;;;;;;45.00;35.20;;;2.80;99.90;;;;;;5055654;28;20459;-70
2022/01/20 02:54:04;;;;;;;36.50;32.73;;;2.80;99.90;;;;;;5059599;28;20478;-70
2022/01/20 02:56:31;;;;;;;39.90;35.43;;;2.70;99.90;;;;;;5057938;28;20470;-70
2022/01/20 02:58:58;;;;;;;37.13;32.90;;;2.60;99.90;;;;;;5059031;28;20498;-69
2022/01/20 03:01:25;;;;;;;37.13;33.43;;;2.60;99.90;;;;;;5051391;28;20465;-69
2022/01/20 03:03:52;;;;;;;37.53;33.53;;;2.60;99.90;;;;;;5052651;28;20969;-70
2022/01/20 03:06:19;;;;;;;35.93;32.40;;;2.70;99.90;;;;;;5059962;28;20469;-69
2022/01/20 03:08:46;;;;;;;35.50;31.67;;;2.60;99.90;;;;;;5052277;28;20462;-70
2022/01/20 03:11:14;;;;;;;33.63;30.63;;;2.70;99.90;;;;;;5056657;28;20473;-69
2022/01/20 03:13:41;;;;;;;42.10;31.17;;;2.60;99.90;;;;;;5058157;28;21260;-70
2022/01/20 03:16:08;;;;;;;44.30;32.03;;;2.80;99.90;;;;;;5050712;28;20742;-69
2022/01/20 03:18:35;;;;;;;34.07;31.00;;;2.80;99.90;;;;;;5049849;28;20988;-70
2022/01/20 03:21:02;;;;;;;36.20;30.97;;;2.90;99.90;;;;;;5052836;28;20491;-69
2022/01/20 03:23:29;;;;;;;33.33;29.90;;;3.00;99.90;;;;;;5059679;28;20466;-70
2022/01/20 03:25:56;;;;;;;37.13;31.60;;;3.10;99.90;;;;;;5059266;28;20462;-69
2022/01/20 03:28:25;;;;;;;37.20;32.00;;;3.10;99.90;;;;;;5046502;28;20493;-69
2022/01/20 03:30:52;;;;;;;44.90;31.90;;;3.20;99.90;;;;;;5054791;28;20478;-69
2022/01/20 03:33:19;;;;;;;40.10;33.47;;;3.20;99.90;;;;;;5057776;28;20565;-70
2022/01/20 03:35:46;;;;;;;34.50;31.53;;;3.30;99.90;;;;;;5051201;28;20470;-69
2022/01/20 03:38:13;;;;;;;40.63;33.20;;;3.20;99.90;;;;;;5056211;28;20562;-70
2022/01/20 03:40:40;;;;;;;34.00;30.60;;;3.30;99.90;;;;;;5051845;28;20458;-69
2022/01/20 03:43:07;;;;;;;34.33;29.37;;;3.30;99.90;;;;;;5053814;28;20463;-70
2022/01/20 03:45:35;;;;;;;41.17;30.57;;;3.30;99.90;;;;;;5057023;28;20464;-70
2022/01/20 03:48:09;;;;;;;42.30;30.50;;;3.30;99.90;;;;;;5057326;28;20459;-70
2022/01/20 03:53:21;;;;;;;42.03;32.30;;;3.30;99.90;;;;;;5056943;28;20922;-70
2022/01/20 03:55:48;;;;;;;34.53;31.10;;;3.30;99.90;;;;;;5063983;28;20462;-69
2022/01/20 03:58:16;;;;;;;35.80;32.27;;;3.20;99.90;;;;;;5053612;28;20967;-70
2022/01/20 04:00:44;;;;;;;33.00;30.03;;;3.20;99.90;;;;;;5056807;28;20471;-70
2022/01/20 04:03:12;;;;;;;33.87;30.60;;;3.10;99.90;;;;;;5045396;28;20483;-69
2022/01/20 04:05:45;;;;;;;33.10;30.00;;;3.00;99.90;;;;;;5058367;28;20553;-70
2022/01/20 04:08:12;;;;;;;37.53;30.80;;;3.00;99.90;;;;;;5053041;28;20448;-70
2022/01/20 04:10:39;;;;;;;40.03;31.33;;;3.00;99.90;;;;;;5057601;28;20455;-69
2022/01/20 04:13:06;;;;;;;31.80;28.73;;;3.10;99.90;;;;;;5060497;28;20502;-70
2022/01/20 04:15:38;;;;;;;32.50;29.00;;;3.10;99.90;;;;;;5063569;28;20860;-70
2022/01/20 04:18:08;;;;;;;33.53;30.03;;;3.10;99.90;;;;;;5066135;28;20494;-68
2022/01/20 04:20:35;;;;;;;40.03;29.27;;;3.20;99.90;;;;;;5053903;28;20456;-70
2022/01/20 04:23:01;;;;;;;33.47;30.13;;;3.10;99.90;;;;;;5058760;28;20463;-70
2022/01/20 04:25:28;;;;;;;31.97;28.63;;;3.20;99.90;;;;;;5053761;28;20490;-69
2022/01/20 04:27:55;;;;;;;35.10;31.27;;;3.20;99.90;;;;;;5054471;28;20478;-70
2022/01/20 04:30:23;;;;;;;34.10;30.57;;;3.20;99.90;;;;;;5052314;28;20461;-70
2022/01/20 04:32:50;;;;;;;34.10;30.67;;;3.20;99.90;;;;;;5053090;28;20456;-70
2022/01/20 04:35:20;;;;;;;34.50;30.87;;;3.00;99.90;;;;;;5055210;28;20860;-70
2022/01/20 04:37:48;;;;;;;32.97;29.77;;;3.00;99.90;;;;;;5057011;28;20467;-70
2022/01/20 04:40:15;;;;;;;34.60;30.90;;;2.90;99.90;;;;;;5050772;28;20482;-69
2022/01/20 04:42:44;;;;;;;33.07;29.67;;;2.90;99.90;;;;;;5055632;28;20455;-70
2022/01/20 04:45:15;;;;;;;32.67;29.77;;;2.90;99.90;;;;;;5057317;28;20456;-70
2022/01/20 04:47:48;;;;;;;32.50;29.00;;;2.90;99.90;;;;;;5059289;28;20513;-69
2022/01/20 04:58:29;;;;;;;31.60;28.53;;;2.90;99.90;;;;;;5051995;28;20950;-70
2022/01/20 05:00:56;;;;;;;35.90;30.07;;;3.00;99.90;;;;;;5040806;28;20463;-70
2022/01/20 05:03:24;;;;;;;37.30;29.03;;;3.10;99.90;;;;;;5034461;28;22607;-69
2022/01/20 05:05:51;;;;;;;32.53;28.40;;;3.20;99.90;;;;;;5029728;28;20456;-69
2022/01/20 05:08:22;;;;;;;30.97;28.20;;;3.20;99.90;;;;;;5030986;28;20514;-69
2022/01/20 05:10:49;;;;;;;30.50;27.70;;;3.20;99.90;;;;;;5033775;28;20474;-70
2022/01/20 05:13:23;;;;;;;27.57;25.27;;;3.30;99.90;;;;;;5032949;28;20490;-69
2022/01/20 05:15:50;;;;;;;25.77;23.60;;;3.30;99.90;;;;;;5032086;28;20805;-70
2022/01/20 05:18:18;;;;;;;27.87;25.80;;;3.40;99.90;;;;;;5032698;28;20450;-69
2022/01/20 05:20:44;;;;;;;36.50;25.40;;;3.40;99.90;;;;;;5034209;28;20475;-70
2022/01/20 05:23:11;;;;;;;27.23;25.03;;;3.50;99.90;;;;;;5032507;28;20469;-69
2022/01/20 05:25:40;;;;;;;26.63;24.30;;;3.50;99.90;;;;;;5049165;28;20841;-69
2022/01/20 05:28:07;;;;;;;27.13;25.03;;;3.40;99.90;;;;;;5055328;28;20455;-69
2022/01/20 05:30:34;;;;;;;27.03;25.00;;;3.40;99.90;;;;;;5038165;28;20487;-69
2022/01/20 05:33:03;;;;;;;26.50;24.50;;;3.50;99.90;;;;;;5030403;28;20463;-69
2022/01/20 05:35:30;;;;;;;28.83;26.20;;;3.40;99.90;;;;;;5032644;28;22283;-70
2022/01/20 05:37:57;;;;;;;28.17;25.63;;;3.40;99.90;;;;;;5032417;28;20544;-70
2022/01/20 05:40:25;;;;;;;33.87;29.77;;;3.50;99.90;;;;;;5032668;28;20468;-69
2022/01/20 05:42:53;;;;;;;36.97;32.87;;;3.50;99.90;;;;;;5032720;28;20455;-68
2022/01/20 05:45:22;;;;;;;35.53;32.00;;;3.50;99.90;;;;;;5033217;28;20839;-72
2022/01/20 05:47:57;;;;;;;34.57;31.30;;;3.60;99.90;;;;;;5033738;28;21040;-71
2022/01/20 05:50:24;;;;;;;32.37;28.33;;;3.60;99.90;;;;;;5032993;28;21014;-71
2022/01/20 05:52:51;;;;;;;31.60;28.87;;;3.60;99.90;;;;;;5032673;28;20482;-72
2022/01/20 05:55:21;;;;;;;27.83;25.83;;;3.50;99.90;;;;;;5031675;28;20490;-73
2022/01/20 05:57:48;;;;;;;28.90;26.40;;;3.50;99.90;;;;;;5031800;28;20459;-72
2022/01/20 06:00:20;;;;;;;29.47;27.23;;;3.50;99.90;;;;;;5031036;28;20459;-71
2022/01/20 06:05:32;;;;;;;31.93;29.23;;;3.50;99.90;;;;;;5031296;28;20503;-72
2022/01/20 06:07:59;;;;;;;29.77;26.87;;;3.40;99.90;;;;;;5031586;28;21033;-72
2022/01/20 06:10:26;;;;;;;32.07;28.30;;;3.40;99.90;;;;;;5031353;28;20507;-72
2022/01/20 06:12:53;;;;;;;33.73;30.60;;;3.50;99.90;;;;;;5030982;28;20986;-70
2022/01/20 06:15:21;;;;;;;31.50;29.17;;;3.50;99.90;;;;;;5031662;28;20827;-72
2022/01/20 06:17:48;;;;;;;32.47;29.83;;;3.50;99.90;;;;;;5032877;28;20474;-73
2022/01/20 06:20:14;;;;;;;33.30;30.37;;;3.40;99.90;;;;;;5031889;28;20471;-72
2022/01/20 06:22:41;;;;;;;34.03;30.67;;;3.40;99.90;;;;;;5030672;28;20573;-72
2022/01/20 06:25:09;;;;;;;31.97;28.83;;;3.40;99.90;;;;;;5031675;28;20494;-72
2022/01/20 06:27:36;;;;;;;31.50;28.93;;;3.40;99.90;;;;;;5030824;28;20487;-71
2022/01/20 06:30:05;;;;;;;36.90;29.90;;;3.40;99.90;;;;;;5043036;28;21004;-72
2022/01/20 06:32:33;;;;;;;31.67;29.20;;;3.40;99.90;;;;;;5030650;28;20466;-73
2022/01/20 06:35:01;;;;;;;32.63;29.60;;;3.30;99.90;;;;;;5031293;28;20652;-72
2022/01/20 06:37:28;;;;;;;32.67;29.77;;;3.30;99.90;;;;;;5032318;28;20578;-70
2022/01/20 06:39:55;;;;;;;31.13;28.43;;;3.30;99.90;;;;;;5032478;28;20468;-71
2022/01/20 06:42:21;;;;;;;32.40;29.43;;;3.30;99.90;;;;;;5032554;28;20867;-70
2022/01/20 06:44:48;;;;;;;33.03;29.27;;;3.40;99.90;;;;;;5032126;28;21041;-72
2022/01/20 06:47:15;;;;;;;33.23;30.43;;;3.40;99.90;;;;;;5029870;28;20834;-70
2022/01/20 06:49:45;;;;;;;32.93;29.70;;;3.40;99.90;;;;;;5029407;28;20462;-71
2022/01/20 06:52:12;;;;;;;34.23;29.77;;;3.40;99.90;;;;;;5031815;28;20506;-70
2022/01/20 06:54:39;;;;;;;31.60;28.20;;;3.40;99.90;;;;;;5026994;28;20492;-72
2022/01/20 06:57:06;;;;;;;31.03;28.13;;;3.40;99.90;;;;;;5042325;28;20798;-70
2022/01/20 06:59:33;;;;;;;31.77;28.20;;;3.30;99.90;;;;;;5049127;28;20467;-71
2022/01/20 07:02:00;;;;;;;31.27;28.40;;;3.40;99.90;;;;;;5057512;28;20994;-70
2022/01/20 07:04:27;;;;;;;31.27;28.63;;;3.40;99.90;;;;;;5049239;28;20459;-69
2022/01/20 07:06:55;;;;;;;30.07;27.23;;;3.40;99.90;;;;;;5028996;28;20549;-71
2022/01/20 07:09:22;;;;;;;30.60;27.33;;;3.30;99.90;;;;;;5030134;28;21050;-71
2022/01/20 07:11:49;;;;;;;30.13;27.63;;;3.30;99.90;;;;;;5029303;28;20521;-71
2022/01/20 07:14:16;;;;;;;29.07;26.40;;;3.20;99.90;;;;;;5025514;28;20463;-70
2022/01/20 07:16:42;;;;;;;31.57;28.23;;;3.10;99.90;;;;;;5017495;28;20453;-71
2022/01/20 07:19:10;;;;;;;28.97;26.17;;;3.00;99.90;;;;;;5023895;28;20478;-71
2022/01/20 07:21:37;;;;;;;31.43;28.00;;;2.90;99.90;;;;;;5024374;28;20709;-70
2022/01/20 07:24:07;;;;;;;30.57;27.63;;;2.90;99.90;;;;;;5026588;28;20621;-72
2022/01/20 07:26:34;;;;;;;30.30;27.63;;;2.90;99.90;;;;;;5033170;28;20833;-71
2022/01/20 07:29:00;;;;;;;30.03;27.57;;;2.90;99.90;;;;;;5045810;28;20466;-70
2022/01/20 07:31:27;;;;;;;33.53;30.40;;;2.90;99.90;;;;;;5050323;28;20934;-70
2022/01/20 07:33:54;;;;;;;36.37;33.10;;;2.90;99.90;;;;;;5047832;28;20542;-71
2022/01/20 07:36:21;;;;;;;31.97;29.27;;;2.90;99.90;;;;;;5032083;28;20495;-71
2022/01/20 07:38:48;;;;;;;34.23;29.97;;;3.00;99.90;;;;;;5032563;28;21026;-70
2022/01/20 07:41:17;;;;;;;33.87;30.60;;;2.90;99.90;;;;;;5031250;28;20482;-70
2022/01/20 07:43:44;;;;;;;34.57;31.30;;;3.00;99.90;;;;;;5008208;28;21458;-71
2022/01/20 07:46:10;;;;;;;34.00;31.40;;;3.00;99.90;;;;;;5031863;28;20474;-71
2022/01/20 07:48:38;;;;;;;34.90;31.13;;;2.90;99.90;;;;;;5031941;28;20465;-71
2022/01/20 07:51:06;;;;;;;34.80;31.87;;;2.90;99.90;;;;;;5027890;28;20464;-70
2022/01/20 07:53:33;;;;;;;33.17;30.30;;;2.90;99.90;;;;;;5030473;28;20470;-70
2022/01/20 07:56:00;;;;;;;33.23;30.33;;;2.90;99.90;;;;;;5030503;28;20499;-70
2022/01/20 07:58:28;;;;;;;31.17;28.53;;;3.00;99.90;;;;;;5026358;28;20906;-71
2022/01/20 08:00:55;;;;;;;33.23;30.37;;;3.00;99.90;;;;;;5028252;28;20541;-70
2022/01/20 08:03:22;;;;;;;39.40;31.37;;;3.00;99.90;;;;;;5029428;28;20536;-71
2022/01/20 08:05:49;;;;;;;32.70;30.00;;;2.90;99.90;;;;;;5038295;28;20474;-71
2022/01/20 08:08:15;;;;;;;33.10;30.17;;;2.90;99.90;;;;;;5026648;28;20472;-70
2022/01/20 08:10:42;;;;;;;32.17;29.47;;;2.90;99.90;;;;;;5030275;28;21152;-70
2022/01/20 08:13:09;;;;;;;33.43;30.57;;;2.90;99.90;;;;;;5025307;28;21021;-70
2022/01/20 08:15:37;;;;;;;34.63;30.80;;;2.90;99.90;;;;;;5027369;28;20496;-69
2022/01/20 08:18:04;;;;;;;33.43;30.63;;;2.80;99.90;;;;;;5028973;28;20470;-70
2022/01/20 08:20:31;;;;;;;30.10;27.50;;;2.80;99.90;;;;;;5029115;28;20841;-70
2022/01/20 08:22:58;;;;;;;31.50;28.57;;;2.70;99.90;;;;;;5027901;28;20502;-69
2022/01/20 08:25:26;;;;;;;32.63;29.07;;;2.70;99.90;;;;;;5028729;28;21095;-70
2022/01/20 08:27:53;;;;;;;32.03;28.90;;;2.70;99.90;;;;;;5029526;28;20469;-70
2022/01/20 08:30:22;;;;;;;31.60;28.50;;;2.70;99.90;;;;;;5029081;28;20562;-71
2022/01/20 08:32:51;;;;;;;31.23;28.10;;;2.60;99.90;;;;;;5029753;28;20560;-70
2022/01/20 08:35:20;;;;;;;37.43;27.77;;;2.70;99.90;;;;;;5030029;28;20498;-70
2022/01/20 08:37:47;;;;;;;37.00;26.87;;;2.80;99.90;;;;;;5030039;28;20804;-70
2022/01/20 08:40:15;;;;;;;30.27;27.63;;;2.80;99.90;;;;;;5029913;28;21059;-71
2022/01/20 08:42:44;;;;;;;30.23;27.50;;;2.90;99.90;;;;;;5029779;28;20843;-69
2022/01/20 08:45:13;;;;;;;30.37;27.07;;;2.90;99.90;;;;;;5026694;28;20469;-70
2022/01/20 08:47:42;;;;;;;28.70;25.83;;;3.00;99.90;;;;;;5027529;28;20475;-71
2022/01/20 08:50:12;;;;;;;28.87;26.20;;;3.00;99.90;;;;;;5038899;28;20470;-70
2022/01/20 08:52:39;;;;;;;32.10;25.33;;;3.10;99.90;;;;;;5028948;28;20489;-70
2022/01/20 08:55:07;;;;;;;26.97;24.30;;;3.10;99.90;;;;;;5028530;28;20495;-70
2022/01/20 08:57:34;;;;;;;26.07;24.07;;;3.20;99.90;;;;;;5027058;28;20467;-70
2022/01/20 09:00:01;;;;;;;26.70;24.37;;;3.20;99.90;;;;;;5037805;28;20468;-70
2022/01/20 09:02:28;;;;;;;28.00;25.27;;;3.30;99.90;;;;;;5055024;28;20991;-70
2022/01/20 09:04:54;;;;;;;33.53;24.50;;;3.30;99.90;;;;;;5042434;28;20478;-70
2022/01/20 09:07:23;;;;;;;26.03;23.77;;;3.30;99.90;;;;;;5025848;28;20473;-70
2022/01/20 09:09:50;;;;;;;27.27;24.20;;;3.40;99.90;;;;;;5027926;28;22429;-70
2022/01/20 09:15:27;;;;;;;30.77;25.77;;;3.40;99.90;;;;;;5025003;28;20636;-70
2022/01/20 09:17:55;;;;;;;30.93;23.40;;;3.30;99.90;;;;;;5028122;28;20501;-70
2022/01/20 09:20:22;;;;;;;26.10;23.63;;;3.10;99.90;;;;;;5028919;28;21113;-70
2022/01/20 09:22:51;;;;;;;24.63;22.57;;;3.10;99.90;;;;;;5029628;28;21080;-70
2022/01/20 09:25:18;;;;;;;27.17;22.27;;;3.00;99.90;;;;;;5027682;28;20498;-69
2022/01/20 09:27:46;;;;;;;35.87;24.23;;;3.10;99.90;;;;;;5027338;28;20611;-70
2022/01/20 09:30:18;;;;;;;23.93;21.77;;;3.10;99.90;;;;;;5026882;28;21260;-70
2022/01/20 09:32:57;;;;;;;22.93;20.70;;;3.30;99.90;;;;;;5026215;28;20471;-71
2022/01/20 09:35:24;;;;;;;23.17;20.93;;;3.50;99.90;;;;;;5027685;28;20498;-70
2022/01/20 09:37:52;;;;;;;25.17;22.43;;;3.70;99.90;;;;;;5028182;28;20826;-72
2022/01/20 09:40:19;;;;;;;28.43;21.97;;;3.90;99.90;;;;;;5028183;28;20471;-70
2022/01/20 09:42:46;;;;;;;26.87;22.10;;;4.10;99.90;;;;;;5028694;28;20486;-70
2022/01/20 09:45:15;;;;;;;25.93;22.33;;;4.20;99.90;;;;;;5026651;28;20463;-70
2022/01/20 09:47:44;;;;;;;24.10;21.50;;;4.20;99.90;;;;;;5026779;28;20550;-70
2022/01/20 09:50:14;;;;;;;23.70;21.57;;;4.20;99.90;;;;;;5026963;28;20507;-69
2022/01/20 09:52:40;;;;;;;25.77;21.57;;;4.20;99.90;;;;;;5025983;28;20467;-70
2022/01/20 09:55:10;;;;;;;28.63;22.00;;;4.30;99.90;;;;;;5024619;28;20473;-70
2022/01/20 09:57:37;;;;;;;24.50;21.70;;;4.30;99.90;;;;;;5027347;28;20463;-69
2022/01/20 10:00:07;;;;;;;22.97;20.70;;;4.30;99.90;;;;;;5027477;28;20467;-69
2022/01/20 10:02:34;;;;;;;27.90;21.53;;;4.30;99.90;;;;;;5027019;28;21084;-70
2022/01/20 10:05:01;;;;;;;31.97;22.07;;;4.30;99.90;;;;;;5027294;28;20493;-70
2022/01/20 10:07:34;;;;;;;22.63;20.30;;;4.50;99.90;;;;;;5027236;28;20502;-69
2022/01/20 10:10:01;;;;;;;22.77;20.47;;;4.50;99.90;;;;;;5025311;28;20491;-69
2022/01/20 10:12:34;;;;;;;24.40;20.27;;;4.60;99.90;;;;;;5024691;28;20491;-71
2022/01/20 10:15:02;;;;;;;22.90;19.27;;;4.70;99.90;;;;;;5025720;28;20472;-70
2022/01/20 10:17:30;;;;;;;27.93;19.90;;;4.70;99.90;;;;;;5028005;28;20571;-69
2022/01/20 10:20:00;;;;;;;26.13;20.40;;;4.70;99.90;;;;;;5028937;28;20550;-69
2022/01/20 10:22:28;;;;;;;22.17;19.97;;;4.70;99.90;;;;;;5027730;28;20462;-69
2022/01/20 10:25:02;;;;;;;24.63;19.43;;;4.70;99.90;;;;;;5028156;28;20464;-69
2022/01/20 10:27:31;;;;;;;22.90;20.00;;;4.70;99.90;;;;;;5026959;28;21258;-70
2022/01/20 10:30:00;;;;;;;21.57;19.27;;;4.70;99.90;;;;;;5026305;28;20468;-69
2022/01/20 10:32:38;;;;;;;20.13;18.30;;;4.60;99.90;;;;;;5025509;28;20478;-69
2022/01/20 10:35:06;;;;;;;20.70;18.87;;;4.60;99.90;;;;;;5025563;28;20479;-69
2022/01/20 10:37:33;;;;;;;27.50;18.90;;;4.70;99.90;;;;;;5026403;28;20473;-70
2022/01/20 10:40:09;;;;;;;29.83;20.00;;;4.90;99.90;;;;;;5025979;28;20469;-70
2022/01/20 10:42:39;;;;;;;27.00;19.00;;;5.00;99.90;;;;;;5026090;28;20654;-70
2022/01/20 10:45:07;;;;;;;22.23;18.40;;;4.90;99.90;;;;;;5024970;28;21545;-70
2022/01/20 10:47:36;;;;;;;18.73;17.00;;;4.90;99.90;;;;;;5025773;28;20810;-70
2022/01/20 10:50:14;;;;;;;19.53;17.77;;;4.80;99.90;;;;;;5026631;28;20501;-70
2022/01/20 10:52:44;;;;;;;25.17;18.40;;;4.80;99.90;;;;;;5027435;28;20861;-69
2022/01/20 10:55:21;;;;;;;19.00;17.30;;;4.70;99.90;;;;;;5027215;28;20472;-70
2022/01/20 10:57:52;;;;;;;19.13;17.37;;;4.60;99.90;;;;;;5027795;28;20541;-70
2022/01/20 11:00:20;;;;;;;20.63;18.50;;;4.60;99.90;;;;;;5038042;28;20497;-69
2022/01/20 11:02:52;;;;;;;19.87;17.77;;;4.60;99.90;;;;;;5024887;28;20479;-69
2022/01/20 11:05:20;;;;;;;19.53;17.63;;;4.70;99.90;;;;;;5030838;28;20506;-69
2022/01/20 11:07:47;;;;;;;19.07;17.30;;;4.70;99.90;;;;;;5021919;28;21064;-69
2022/01/20 11:10:16;;;;;;;18.13;16.73;;;4.70;99.90;;;;;;5021570;28;20571;-69
2022/01/20 11:12:43;;;;;;;20.00;17.03;;;4.60;99.90;;;;;;5028171;28;20506;-69
2022/01/20 11:15:15;;;;;;;21.27;18.47;;;4.50;99.90;;;;;;5051541;28;20465;-69
2022/01/20 11:17:42;;;;;;;19.70;18.00;;;4.50;99.90;;;;;;5046787;28;20504;-68
2022/01/20 11:20:12;;;;;;;41.90;19.53;;;4.30;99.90;;;;;;5031473;28;20569;-68
2022/01/20 11:22:51;;;;;;;20.93;18.97;;;4.10;99.90;;;;;;5024757;28;20452;-69
2022/01/20 11:25:22;;;;;;;21.13;18.20;;;4.00;99.90;;;;;;5025916;28;20473;-69
2022/01/20 11:27:52;;;;;;;20.23;18.10;;;4.00;99.90;;;;;;5026540;28;21027;-68
2022/01/20 11:30:24;;;;;;;19.10;17.37;;;4.00;99.90;;;;;;5025771;28;20468;-69
2022/01/20 11:33:03;;;;;;;19.47;17.77;;;4.00;99.90;;;;;;5026513;28;20460;-68
2022/01/20 11:35:43;;;;;;;18.83;17.20;;;4.00;99.90;;;;;;5026216;28;20471;-68
2022/01/20 11:38:12;;;;;;;17.67;16.47;;;4.00;99.90;;;;;;5026343;28;20485;-68
2022/01/20 11:40:51;;;;;;;17.40;16.10;;;4.00;99.90;;;;;;5023841;28;20927;-69
2022/01/20 11:43:18;;;;;;;17.30;15.73;;;3.80;99.90;;;;;;5026109;28;20460;-71
2022/01/20 11:45:51;;;;;;;16.97;15.37;;;4.00;99.90;;;;;;5026335;28;20458;-68
2022/01/20 11:48:19;;;;;;;18.00;15.83;;;4.40;99.90;;;;;;5024439;28;20468;-69
2022/01/20 11:50:48;;;;;;;17.23;15.63;;;4.90;99.90;;;;;;5025224;28;20460;-72
2022/01/20 11:53:17;;;;;;;16.90;15.53;;;5.00;99.90;;;;;;5025761;28;20482;-71
2022/01/20 11:55:46;;;;;;;17.40;15.73;;;4.90;99.90;;;;;;5025991;28;20473;-71
2022/01/20 11:58:15;;;;;;;15.73;14.80;;;5.00;99.90;;;;;;5025140;28;20471;-70
2022/01/20 12:00:42;;;;;;;17.07;15.83;;;5.10;99.90;;;;;;5026161;28;20476;-69
2022/01/20 12:03:15;;;;;;;18.27;15.87;;;5.30;99.90;;;;;;5024380;28;20482;-69
2022/01/20 12:05:43;;;;;;;16.57;15.17;;;5.30;99.90;;;;;;5026673;28;20469;-69
2022/01/20 12:08:12;;;;;;;20.17;15.27;;;5.30;99.90;;;;;;5026387;28;20470;-69
2022/01/20 12:10:40;;;;;;;16.30;14.93;;;5.40;99.90;;;;;;5027853;28;20476;-70
2022/01/20 12:13:08;;;;;;;17.33;15.77;;;5.80;99.90;;;;;;5030454;28;21253;-70
2022/01/20 12:15:35;;;;;;;16.23;15.17;;;6.20;99.90;;;;;;5029006;28;20470;-69
2022/01/20 12:18:02;;;;;;;17.70;15.63;;;6.40;99.90;;;;;;5028759;28;20487;-69
2022/01/20 12:20:31;;;;;;;18.37;15.80;;;6.70;99.90;;;;;;5029656;28;20446;-69
2022/01/20 12:22:58;;;;;;;18.27;16.50;;;6.80;99.90;;;;;;5029915;28;20464;-70
2022/01/20 12:25:28;;;;;;;20.70;16.10;;;6.70;99.90;;;;;;5029817;28;20478;-70
2022/01/20 12:28:04;;;;;;;17.43;16.37;;;7.10;99.90;;;;;;5029017;28;20634;-70
2022/01/20 12:30:31;;;;;;;18.13;16.73;;;7.30;99.90;;;;;;5029147;28;20478;-69
2022/01/20 12:33:00;;;;;;;18.00;16.70;;;6.80;99.90;;;;;;5029869;28;20468;-69
2022/01/20 12:35:37;;;;;;;19.60;17.80;;;6.00;99.90;;;;;;5030371;28;20472;-69
2022/01/20 12:38:19;;;;;;;18.53;17.10;;;5.50;99.90;;;;;;5029900;28;21027;-70
2022/01/20 12:40:50;;;;;;;18.90;17.10;;;5.90;99.90;;;;;;5029831;28;20467;-69
2022/01/20 12:43:18;;;;;;;18.03;16.57;;;6.40;99.90;;;;;;5030035;28;20459;-69
2022/01/20 12:45:57;;;;;;;18.90;17.50;;;6.40;99.90;;;;;;5029174;28;21044;-69
2022/01/20 12:48:24;;;;;;;18.53;17.13;;;6.50;99.90;;;;;;5025659;28;20460;-70
2022/01/20 12:50:55;;;;;;;36.27;18.03;;;6.50;99.90;;;;;;5027243;28;20479;-70
2022/01/20 12:53:32;;;;;;;18.33;17.03;;;6.30;99.90;;;;;;5035500;28;20513;-69
2022/01/20 12:55:59;;;;;;;24.03;17.40;;;6.40;99.90;;;;;;5050548;28;20460;-69
2022/01/20 12:58:26;;;;;;;19.30;17.57;;;6.50;99.90;;;;;;5027036;28;20947;-70
2022/01/20 13:01:05;;;;;;;17.70;16.50;;;6.40;99.90;;;;;;5028685;28;20518;-70
2022/01/20 13:03:37;;;;;;;18.43;16.93;;;6.30;99.90;;;;;;5029274;28;20564;-69
2022/01/20 13:06:06;;;;;;;18.20;16.60;;;6.30;99.90;;;;;;5029319;28;22284;-69
2022/01/20 13:08:36;;;;;;;17.37;15.97;;;6.10;99.90;;;;;;5028074;28;20980;-69
2022/01/20 13:11:11;;;;;;;18.37;17.10;;;6.40;99.90;;;;;;5028648;28;20473;-69
2022/01/20 13:13:38;;;;;;;17.43;16.23;;;6.60;99.90;;;;;;5028917;28;20562;-69
2022/01/20 13:16:13;;;;;;;19.23;17.53;;;6.90;99.90;;;;;;5028034;28;20479;-69
2022/01/20 13:18:51;;;;;;;17.30;16.10;;;6.90;99.90;;;;;;5052423;28;20462;-69
2022/01/20 13:21:20;;;;;;;18.73;17.23;;;6.80;99.90;;;;;;5045793;28;20460;-69
2022/01/20 13:23:56;;;;;;;21.23;18.23;;;6.80;99.90;;;;;;5031503;28;20461;-71
2022/01/20 13:26:23;;;;;;;18.20;16.70;;;6.80;99.90;;;;;;5026946;28;20465;-70
2022/01/20 13:28:58;;;;;;;18.47;16.60;;;6.40;99.90;;;;;;5026941;28;20464;-70
2022/01/20 13:31:25;;;;;;;18.33;17.03;;;6.20;99.90;;;;;;5025824;28;20999;-70
2022/01/20 13:33:52;;;;;;;19.57;18.07;;;6.20;99.90;;;;;;5028369;28;20518;-70
2022/01/20 13:36:22;;;;;;;18.20;16.57;;;6.40;99.90;;;;;;5024131;28;20470;-71
2022/01/20 13:38:57;;;;;;;19.57;17.73;;;6.80;99.90;;;;;;5000093;28;23631;-71